Terminal Aerodrome Forecast
Issued by NWS

Home | Current Version | Previous Version | Text Only | Print | Product List | Glossary On
Versions: 1 2 3 4 5 6 7 8 9 10 11 12 13 14
838
FTUS45 KTFX 170520
TAFCTB
TAF
KCTB 170520Z 1706/1806 26024G32KT P6SM SCT150 BKN200
     FM172000 26032G40KT P6SM SCT100 BKN150=

USA.gov is the U.S. government's official web portal to all federal, state and local government web resources and services.